sensor_id;sensor_type;location;lat;lon;timestamp;pressure;altitude;pressure_sealevel;temperature;humidity
67457;BME280;54319;52.038;4.640;2023-04-25T00:00:01;101249.19;;;5.05;91.75
67457;BME280;54319;52.038;4.640;2023-04-25T00:02:28;101245.31;;;4.99;91.65
67457;BME280;54319;52.038;4.640;2023-04-25T00:04:56;101256.47;;;4.96;91.76
67457;BME280;54319;52.038;4.640;2023-04-25T00:07:24;101256.09;;;4.91;91.85
67457;BME280;54319;52.038;4.640;2023-04-25T00:09:51;101255.06;;;4.84;91.92
67457;BME280;54319;52.038;4.640;2023-04-25T00:12:18;101259.09;;;4.80;91.80
67457;BME280;54319;52.038;4.640;2023-04-25T00:14:46;101257.75;;;4.75;91.94
67457;BME280;54319;52.038;4.640;2023-04-25T00:17:14;101263.63;;;4.71;92.00
67457;BME280;54319;52.038;4.640;2023-04-25T00:19:42;101269.69;;;4.64;92.00
67457;BME280;54319;52.038;4.640;2023-04-25T00:22:09;101264.09;;;4.58;92.13
67457;BME280;54319;52.038;4.640;2023-04-25T00:24:36;101264.44;;;4.55;92.21
67457;BME280;54319;52.038;4.640;2023-04-25T00:27:03;101268.63;;;4.49;92.24
67457;BME280;54319;52.038;4.640;2023-04-25T00:29:31;101267.06;;;4.46;92.35
67457;BME280;54319;52.038;4.640;2023-04-25T00:31:57;101272.16;;;4.49;92.33
67457;BME280;54319;52.038;4.640;2023-04-25T00:40:48;101271.66;;;4.46;92.41
67457;BME280;54319;52.038;4.640;2023-04-25T00:43:21;101268.63;;;4.49;92.20
67457;BME280;54319;52.038;4.640;2023-04-25T00:45:49;101270.81;;;4.54;91.70
67457;BME280;54319;52.038;4.640;2023-04-25T00:48:17;101277.28;;;4.61;91.67
67457;BME280;54319;52.038;4.640;2023-04-25T00:50:43;101271.25;;;4.67;91.51
67457;BME280;54319;52.038;4.640;2023-04-25T00:53:14;101278.00;;;4.71;90.71
67457;BME280;54319;52.038;4.640;2023-04-25T00:55:41;101279.56;;;4.74;91.17
67457;BME280;54319;52.038;4.640;2023-04-25T00:58:07;101289.50;;;4.73;91.54
67457;BME280;54319;52.038;4.640;2023-04-25T01:00:33;101273.28;;;4.73;91.20
67457;BME280;54319;52.038;4.640;2023-04-25T01:03:01;101284.09;;;4.73;90.93
67457;BME280;54319;52.038;4.640;2023-04-25T01:05:30;101286.13;;;4.71;91.00
67457;BME280;54319;52.038;4.640;2023-04-25T01:07:56;101287.44;;;4.67;91.32
67457;BME280;54319;52.038;4.640;2023-04-25T01:10:23;101291.81;;;4.60;91.65
67457;BME280;54319;52.038;4.640;2023-04-25T01:12:49;101285.19;;;4.54;91.60
67457;BME280;54319;52.038;4.640;2023-04-25T01:15:16;101286.00;;;4.46;92.03
67457;BME280;54319;52.038;4.640;2023-04-25T01:17:42;101286.63;;;4.40;92.35
67457;BME280;54319;52.038;4.640;2023-04-25T01:20:11;101288.97;;;4.35;92.32
67457;BME280;54319;52.038;4.640;2023-04-25T01:22:39;101282.19;;;4.31;92.52
67457;BME280;54319;52.038;4.640;2023-04-25T01:25:06;101297.72;;;4.29;92.76
67457;BME280;54319;52.038;4.640;2023-04-25T01:27:33;101300.06;;;4.24;93.38
67457;BME280;54319;52.038;4.640;2023-04-25T01:29:59;101305.09;;;4.18;93.41
67457;BME280;54319;52.038;4.640;2023-04-25T01:32:26;101302.16;;;4.12;93.33
67457;BME280;54319;52.038;4.640;2023-04-25T01:34:52;101305.34;;;4.07;93.30
67457;BME280;54319;52.038;4.640;2023-04-25T01:37:19;101304.28;;;4.00;93.46
67457;BME280;54319;52.038;4.640;2023-04-25T01:39:46;101305.59;;;3.96;93.45
67457;BME280;54319;52.038;4.640;2023-04-25T01:42:13;101309.31;;;3.95;93.64
67457;BME280;54319;52.038;4.640;2023-04-25T01:44:40;101310.31;;;3.94;93.31
67457;BME280;54319;52.038;4.640;2023-04-25T01:47:06;101311.47;;;3.91;93.27
67457;BME280;54319;52.038;4.640;2023-04-25T01:49:33;101309.06;;;3.88;93.32
67457;BME280;54319;52.038;4.640;2023-04-25T01:51:59;101312.09;;;3.85;93.55
67457;BME280;54319;52.038;4.640;2023-04-25T01:54:25;101310.38;;;3.84;94.02
67457;BME280;54319;52.038;4.640;2023-04-25T01:56:55;101316.78;;;3.83;94.35
67457;BME280;54319;52.038;4.640;2023-04-25T01:59:23;101314.28;;;3.81;94.39
67457;BME280;54319;52.038;4.640;2023-04-25T02:01:50;101313.56;;;3.79;94.80
67457;BME280;54319;52.038;4.640;2023-04-25T02:04:16;101319.50;;;3.83;94.88
67457;BME280;54319;52.038;4.640;2023-04-25T02:06:42;101319.19;;;3.86;94.89
67457;BME280;54319;52.038;4.640;2023-04-25T02:09:09;101315.34;;;3.88;94.92
67457;BME280;54319;52.038;4.640;2023-04-25T02:11:35;101321.09;;;3.94;94.71
67457;BME280;54319;52.038;4.640;2023-04-25T02:14:03;101321.63;;;3.97;94.17
67457;BME280;54319;52.038;4.640;2023-04-25T02:16:29;101315.75;;;4.02;93.63
67457;BME280;54319;52.038;4.640;2023-04-25T02:18:56;101317.00;;;4.08;92.61
67457;BME280;54319;52.038;4.640;2023-04-25T02:21:23;101317.38;;;4.13;91.99
67457;BME280;54319;52.038;4.640;2023-04-25T02:23:49;101316.59;;;4.20;91.49
67457;BME280;54319;52.038;4.640;2023-04-25T02:26:17;101317.97;;;4.25;90.70
67457;BME280;54319;52.038;4.640;2023-04-25T02:28:43;101317.31;;;4.31;90.64
67457;BME280;54319;52.038;4.640;2023-04-25T02:31:11;101318.69;;;4.35;90.22
67457;BME280;54319;52.038;4.640;2023-04-25T02:33:37;101313.81;;;4.39;89.86
67457;BME280;54319;52.038;4.640;2023-04-25T02:36:04;101317.91;;;4.43;89.76
67457;BME280;54319;52.038;4.640;2023-04-25T02:38:30;101318.59;;;4.45;89.24
67457;BME280;54319;52.038;4.640;2023-04-25T02:40:57;101324.50;;;4.48;89.24
67457;BME280;54319;52.038;4.640;2023-04-25T02:43:23;101317.06;;;4.51;88.87
67457;BME280;54319;52.038;4.640;2023-04-25T02:45:49;101322.16;;;4.54;88.92
67457;BME280;54319;52.038;4.640;2023-04-25T02:48:17;101326.25;;;4.58;89.12
67457;BME280;54319;52.038;4.640;2023-04-25T02:50:44;101323.38;;;4.59;88.97
67457;BME280;54319;52.038;4.640;2023-04-25T02:53:10;101328.31;;;4.64;88.51
67457;BME280;54319;52.038;4.640;2023-04-25T02:55:38;101321.56;;;4.68;88.15
67457;BME280;54319;52.038;4.640;2023-04-25T02:58:04;101321.94;;;4.73;88.08
67457;BME280;54319;52.038;4.640;2023-04-25T03:00:31;101319.59;;;4.78;87.88
67457;BME280;54319;52.038;4.640;2023-04-25T03:02:57;101324.66;;;4.82;87.62
67457;BME280;54319;52.038;4.640;2023-04-25T03:05:25;101321.63;;;4.85;87.51
67457;BME280;54319;52.038;4.640;2023-04-25T03:07:52;101322.84;;;4.90;87.34
67457;BME280;54319;52.038;4.640;2023-04-25T03:10:18;101317.97;;;4.94;87.23
67457;BME280;54319;52.038;4.640;2023-04-25T03:12:44;101320.16;;;4.99;86.94
67457;BME280;54319;52.038;4.640;2023-04-25T03:15:11;101316.13;;;5.03;86.88
67457;BME280;54319;52.038;4.640;2023-04-25T03:17:37;101328.31;;;5.07;86.59
67457;BME280;54319;52.038;4.640;2023-04-25T03:20:04;101329.16;;;5.07;86.99
67457;BME280;54319;52.038;4.640;2023-04-25T03:22:34;101331.53;;;5.11;86.88
67457;BME280;54319;52.038;4.640;2023-04-25T03:25:01;101340.19;;;5.14;86.94
67457;BME280;54319;52.038;4.640;2023-04-25T03:27:27;101344.41;;;5.17;86.85
67457;BME280;54319;52.038;4.640;2023-04-25T03:29:54;101342.72;;;5.16;87.66
67457;BME280;54319;52.038;4.640;2023-04-25T03:32:20;101339.00;;;5.17;88.02
67457;BME280;54319;52.038;4.640;2023-04-25T03:34:46;101328.34;;;5.15;88.08
67457;BME280;54319;52.038;4.640;2023-04-25T03:37:13;101340.00;;;5.16;88.09
67457;BME280;54319;52.038;4.640;2023-04-25T03:39:41;101335.59;;;5.15;87.85
67457;BME280;54319;52.038;4.640;2023-04-25T03:42:08;101336.81;;;5.12;88.44
67457;BME280;54319;52.038;4.640;2023-04-25T03:44:35;101347.78;;;5.11;89.34
67457;BME280;54319;52.038;4.640;2023-04-25T03:47:01;101346.06;;;5.10;89.36
67457;BME280;54319;52.038;4.640;2023-04-25T03:49:27;101346.41;;;5.06;90.14
67457;BME280;54319;52.038;4.640;2023-04-25T03:51:54;101346.56;;;5.05;90.06
67457;BME280;54319;52.038;4.640;2023-04-25T03:54:20;101350.13;;;5.05;90.48
67457;BME280;54319;52.038;4.640;2023-04-25T03:56:48;101346.56;;;5.05;90.44
67457;BME280;54319;52.038;4.640;2023-04-25T03:59:14;101350.44;;;5.02;90.46
67457;BME280;54319;52.038;4.640;2023-04-25T04:01:41;101363.28;;;5.00;90.93
67457;BME280;54319;52.038;4.640;2023-04-25T04:04:07;101368.53;;;5.02;90.67
67457;BME280;54319;52.038;4.640;2023-04-25T04:06:34;101368.16;;;4.97;90.79
67457;BME280;54319;52.038;4.640;2023-04-25T04:09:01;101365.47;;;4.97;91.44
67457;BME280;54319;52.038;4.640;2023-04-25T04:11:28;101361.91;;;4.96;91.45
67457;BME280;54319;52.038;4.640;2023-04-25T04:13:55;101367.31;;;4.96;91.55
67457;BME280;54319;52.038;4.640;2023-04-25T04:16:22;101369.16;;;4.96;91.49
67457;BME280;54319;52.038;4.640;2023-04-25T04:18:48;101368.34;;;4.95;91.88
67457;BME280;54319;52.038;4.640;2023-04-25T04:21:14;101367.47;;;4.95;92.07
67457;BME280;54319;52.038;4.640;2023-04-25T04:23:41;101371.03;;;4.95;92.15
67457;BME280;54319;52.038;4.640;2023-04-25T04:26:09;101375.44;;;4.96;92.01
67457;BME280;54319;52.038;4.640;2023-04-25T04:28:36;101373.75;;;4.95;91.57
67457;BME280;54319;52.038;4.640;2023-04-25T04:31:04;101376.59;;;4.93;91.74
67457;BME280;54319;52.038;4.640;2023-04-25T04:33:30;101374.22;;;4.90;92.20
67457;BME280;54319;52.038;4.640;2023-04-25T04:35:57;101381.47;;;4.90;92.52
67457;BME280;54319;52.038;4.640;2023-04-25T04:38:24;101384.84;;;4.92;92.15
67457;BME280;54319;52.038;4.640;2023-04-25T04:40:50;101385.56;;;4.94;92.11
67457;BME280;54319;52.038;4.640;2023-04-25T04:43:17;101382.88;;;4.94;90.86
67457;BME280;54319;52.038;4.640;2023-04-25T04:45:43;101404.19;;;4.97;90.25
67457;BME280;54319;52.038;4.640;2023-04-25T04:48:11;101396.56;;;5.01;89.30
67457;BME280;54319;52.038;4.640;2023-04-25T04:50:39;101397.94;;;5.05;87.65
67457;BME280;54319;52.038;4.640;2023-04-25T04:53:06;101400.31;;;5.08;87.77
67457;BME280;54319;52.038;4.640;2023-04-25T04:55:32;101394.91;;;5.08;87.92
67457;BME280;54319;52.038;4.640;2023-04-25T04:57:58;101398.28;;;5.10;88.48
67457;BME280;54319;52.038;4.640;2023-04-25T05:00:25;101401.72;;;5.12;88.59
67457;BME280;54319;52.038;4.640;2023-04-25T05:02:52;101401.84;;;5.11;87.94
67457;BME280;54319;52.038;4.640;2023-04-25T05:05:20;101410.66;;;5.13;89.36
67457;BME280;54319;52.038;4.640;2023-04-25T05:07:46;101404.72;;;5.09;88.83
67457;BME280;54319;52.038;4.640;2023-04-25T05:10:12;101412.16;;;5.07;89.14
67457;BME280;54319;52.038;4.640;2023-04-25T05:12:39;101418.75;;;5.04;89.50
67457;BME280;54319;52.038;4.640;2023-04-25T05:15:06;101424.78;;;4.98;89.36
67457;BME280;54319;52.038;4.640;2023-04-25T05:17:32;101426.41;;;4.91;89.31
67457;BME280;54319;52.038;4.640;2023-04-25T05:19:59;101433.84;;;4.89;89.96
67457;BME280;54319;52.038;4.640;2023-04-25T05:22:28;101431.81;;;4.91;90.87
67457;BME280;54319;52.038;4.640;2023-04-25T05:24:54;101438.25;;;4.90;90.98
67457;BME280;54319;52.038;4.640;2023-04-25T05:27:20;101446.06;;;4.93;90.72
67457;BME280;54319;52.038;4.640;2023-04-25T05:29:47;101462.66;;;4.98;90.90
67457;BME280;54319;52.038;4.640;2023-04-25T05:32:13;101456.75;;;5.03;90.30
67457;BME280;54319;52.038;4.640;2023-04-25T05:34:40;101469.47;;;5.11;90.00
67457;BME280;54319;52.038;4.640;2023-04-25T05:37:06;101478.97;;;5.15;89.99
67457;BME280;54319;52.038;4.640;2023-04-25T05:39:34;101476.78;;;5.18;89.24
67457;BME280;54319;52.038;4.640;2023-04-25T05:42:01;101481.34;;;5.18;89.08
67457;BME280;54319;52.038;4.640;2023-04-25T05:44:28;101497.91;;;5.15;88.15
67457;BME280;54319;52.038;4.640;2023-04-25T05:46:55;101484.84;;;5.10;88.26
67457;BME280;54319;52.038;4.640;2023-04-25T05:49:21;101488.88;;;5.06;87.31
67457;BME280;54319;52.038;4.640;2023-04-25T05:51:48;101487.19;;;5.05;88.01
67457;BME280;54319;52.038;4.640;2023-04-25T05:54:14;101489.75;;;5.06;87.70
67457;BME280;54319;52.038;4.640;2023-04-25T05:56:42;101490.56;;;5.07;89.35
67457;BME280;54319;52.038;4.640;2023-04-25T05:59:08;101497.53;;;5.10;90.11
67457;BME280;54319;52.038;4.640;2023-04-25T06:01:35;101512.44;;;5.14;90.77
67457;BME280;54319;52.038;4.640;2023-04-25T06:04:01;101516.69;;;5.16;91.32
67457;BME280;54319;52.038;4.640;2023-04-25T06:06:27;101512.44;;;5.14;89.61
67457;BME280;54319;52.038;4.640;2023-04-25T06:08:54;101521.97;;;5.26;86.79
67457;BME280;54319;52.038;4.640;2023-04-25T06:11:20;101524.16;;;5.22;88.70
67457;BME280;54319;52.038;4.640;2023-04-25T06:13:48;101526.22;;;5.02;89.12
67457;BME280;54319;52.038;4.640;2023-04-25T06:16:16;101535.81;;;4.97;90.24
67457;BME280;54319;52.038;4.640;2023-04-25T06:18:42;101535.84;;;4.78;91.19
67457;BME280;54319;52.038;4.640;2023-04-25T06:21:09;101530.19;;;4.72;91.45
67457;BME280;54319;52.038;4.640;2023-04-25T06:23:35;101530.75;;;4.75;93.39
67457;BME280;54319;52.038;4.640;2023-04-25T06:26:01;101520.16;;;4.82;94.46
67457;BME280;54319;52.038;4.640;2023-04-25T06:28:28;101523.75;;;4.91;94.30
67457;BME280;54319;52.038;4.640;2023-04-25T06:30:56;101524.22;;;5.04;95.38
67457;BME280;54319;52.038;4.640;2023-04-25T06:33:22;101522.50;;;5.03;92.33
67457;BME280;54319;52.038;4.640;2023-04-25T06:35:49;101528.34;;;5.17;91.98
67457;BME280;54319;52.038;4.640;2023-04-25T06:38:15;101527.22;;;5.28;92.72
67457;BME280;54319;52.038;4.640;2023-04-25T06:40:42;101536.28;;;5.45;92.65
67457;BME280;54319;52.038;4.640;2023-04-25T06:43:08;101539.69;;;5.55;93.22
67457;BME280;54319;52.038;4.640;2023-04-25T06:45:35;101545.31;;;5.62;92.91
67457;BME280;54319;52.038;4.640;2023-04-25T06:48:03;101538.09;;;5.71;91.88
67457;BME280;54319;52.038;4.640;2023-04-25T06:50:29;101541.16;;;5.76;90.40
67457;BME280;54319;52.038;4.640;2023-04-25T06:52:56;101548.66;;;5.90;91.28
67457;BME280;54319;52.038;4.640;2023-04-25T06:55:22;101542.75;;;5.95;90.95
67457;BME280;54319;52.038;4.640;2023-04-25T06:57:48;101539.91;;;6.05;90.45
67457;BME280;54319;52.038;4.640;2023-04-25T07:00:15;101547.91;;;6.15;90.92
67457;BME280;54319;52.038;4.640;2023-04-25T07:02:42;101547.75;;;6.25;87.95
67457;BME280;54319;52.038;4.640;2023-04-25T07:05:10;101550.31;;;6.26;87.01
67457;BME280;54319;52.038;4.640;2023-04-25T07:07:37;101541.34;;;6.34;86.46
67457;BME280;54319;52.038;4.640;2023-04-25T07:10:04;101545.25;;;6.40;84.80
67457;BME280;54319;52.038;4.640;2023-04-25T07:12:33;101537.97;;;6.48;85.10
67457;BME280;54319;52.038;4.640;2023-04-25T07:14:59;101544.09;;;6.59;83.11
67457;BME280;54319;52.038;4.640;2023-04-25T07:17:31;101546.59;;;6.60;85.28
67457;BME280;54319;52.038;4.640;2023-04-25T07:19:57;101554.41;;;6.88;83.24
67457;BME280;54319;52.038;4.640;2023-04-25T07:22:25;101557.97;;;7.05;82.70
67457;BME280;54319;52.038;4.640;2023-04-25T07:24:52;101555.91;;;7.80;81.97
67457;BME280;54319;52.038;4.640;2023-04-25T07:27:18;101558.34;;;8.62;78.09
67457;BME280;54319;52.038;4.640;2023-04-25T07:29:45;101563.03;;;8.53;75.01
67457;BME280;54319;52.038;4.640;2023-04-25T07:32:11;101565.06;;;8.19;76.43
67457;BME280;54319;52.038;4.640;2023-04-25T07:34:38;101575.41;;;7.84;77.69
67457;BME280;54319;52.038;4.640;2023-04-25T07:37:06;101580.72;;;7.69;78.03
67457;BME280;54319;52.038;4.640;2023-04-25T07:39:34;101572.00;;;7.42;79.27
67457;BME280;54319;52.038;4.640;2023-04-25T07:42:02;101573.56;;;7.28;81.29
67457;BME280;54319;52.038;4.640;2023-04-25T07:44:28;101567.69;;;8.04;80.18
67457;BME280;54319;52.038;4.640;2023-04-25T07:46:55;101572.75;;;9.09;70.92
67457;BME280;54319;52.038;4.640;2023-04-25T07:49:22;101573.94;;;9.30;68.37
67457;BME280;54319;52.038;4.640;2023-04-25T07:51:48;101577.50;;;8.92;69.09
67457;BME280;54319;52.038;4.640;2023-04-25T07:54:15;101579.63;;;8.81;71.25
67457;BME280;54319;52.038;4.640;2023-04-25T07:56:44;101577.81;;;8.50;71.57
67457;BME280;54319;52.038;4.640;2023-04-25T07:59:10;101583.75;;;8.14;70.16
67457;BME280;54319;52.038;4.640;2023-04-25T08:01:37;101587.81;;;7.87;69.21
67457;BME280;54319;52.038;4.640;2023-04-25T08:04:03;101587.97;;;7.85;72.84
67457;BME280;54319;52.038;4.640;2023-04-25T08:06:30;101581.47;;;9.04;68.39
67457;BME280;54319;52.038;4.640;2023-04-25T08:08:56;101588.78;;;10.39;62.75
67457;BME280;54319;52.038;4.640;2023-04-25T08:11:23;101597.59;;;10.56;60.17
67457;BME280;54319;52.038;4.640;2023-04-25T08:13:51;101601.22;;;10.26;62.17
67457;BME280;54319;52.038;4.640;2023-04-25T08:16:17;101608.25;;;10.36;61.08
67457;BME280;54319;52.038;4.640;2023-04-25T08:18:44;101610.13;;;10.72;60.24
67457;BME280;54319;52.038;4.640;2023-04-25T08:21:10;101611.31;;;10.84;60.41
67457;BME280;54319;52.038;4.640;2023-04-25T08:23:38;101615.56;;;11.37;60.97
67457;BME280;54319;52.038;4.640;2023-04-25T08:26:04;101615.22;;;11.54;57.17
67457;BME280;54319;52.038;4.640;2023-04-25T08:28:31;101623.84;;;11.22;57.73
67457;BME280;54319;52.038;4.640;2023-04-25T08:30:59;101628.19;;;10.73;58.67
67457;BME280;54319;52.038;4.640;2023-04-25T08:33:25;101635.84;;;10.11;62.02
67457;BME280;54319;52.038;4.640;2023-04-25T08:35:52;101641.28;;;9.51;61.35
67457;BME280;54319;52.038;4.640;2023-04-25T08:38:19;101647.50;;;8.98;65.40
67457;BME280;54319;52.038;4.640;2023-04-25T08:40:48;101656.56;;;8.67;65.81
67457;BME280;54319;52.038;4.640;2023-04-25T08:43:15;101657.13;;;8.86;66.22
67457;BME280;54319;52.038;4.640;2023-04-25T08:45:43;101645.91;;;9.27;62.19
67457;BME280;54319;52.038;4.640;2023-04-25T08:48:12;101641.47;;;9.64;62.89
67457;BME280;54319;52.038;4.640;2023-04-25T08:50:40;101646.06;;;9.79;62.30
67457;BME280;54319;52.038;4.640;2023-04-25T08:53:08;101659.16;;;9.83;62.64
67457;BME280;54319;52.038;4.640;2023-04-25T08:55:35;101661.75;;;9.62;62.04
67457;BME280;54319;52.038;4.640;2023-04-25T08:58:02;101670.25;;;9.67;63.36
67457;BME280;54319;52.038;4.640;2023-04-25T09:00:30;101676.94;;;9.41;62.15
67457;BME280;54319;52.038;4.640;2023-04-25T09:02:57;101690.81;;;9.31;61.85
67457;BME280;54319;52.038;4.640;2023-04-25T09:05:25;101685.56;;;9.45;60.98
67457;BME280;54319;52.038;4.640;2023-04-25T09:07:53;101686.56;;;9.52;60.70
67457;BME280;54319;52.038;4.640;2023-04-25T09:10:21;101694.72;;;9.52;58.78
67457;BME280;54319;52.038;4.640;2023-04-25T09:13:01;101704.34;;;9.39;57.69
67457;BME280;54319;52.038;4.640;2023-04-25T09:15:28;101706.00;;;9.49;58.65
67457;BME280;54319;52.038;4.640;2023-04-25T09:17:55;101703.47;;;9.62;61.74
67457;BME280;54319;52.038;4.640;2023-04-25T09:20:21;101721.63;;;9.32;65.40
67457;BME280;54319;52.038;4.640;2023-04-25T09:22:51;101722.03;;;8.97;65.76
67457;BME280;54319;52.038;4.640;2023-04-25T09:25:26;101730.47;;;9.10;67.16
67457;BME280;54319;52.038;4.640;2023-04-25T09:27:53;101733.41;;;9.24;67.36
67457;BME280;54319;52.038;4.640;2023-04-25T09:30:28;101735.09;;;9.25;68.74
67457;BME280;54319;52.038;4.640;2023-04-25T09:32:56;101734.16;;;9.18;67.33
67457;BME280;54319;52.038;4.640;2023-04-25T09:35:25;101741.06;;;8.97;66.01
67457;BME280;54319;52.038;4.640;2023-04-25T09:37:53;101746.94;;;8.86;67.05
67457;BME280;54319;52.038;4.640;2023-04-25T09:40:20;101747.63;;;9.11;67.90
67457;BME280;54319;52.038;4.640;2023-04-25T09:42:46;101750.94;;;8.98;67.33
67457;BME280;54319;52.038;4.640;2023-04-25T09:45:13;101756.94;;;8.93;68.38
67457;BME280;54319;52.038;4.640;2023-04-25T09:47:40;101762.34;;;9.25;66.00
67457;BME280;54319;52.038;4.640;2023-04-25T09:50:13;101752.41;;;9.32;64.26
67457;BME280;54319;52.038;4.640;2023-04-25T09:52:40;101754.44;;;9.53;64.74
67457;BME280;54319;52.038;4.640;2023-04-25T09:55:08;101746.41;;;9.60;64.28
67457;BME280;54319;52.038;4.640;2023-04-25T09:57:34;101743.81;;;9.67;63.13
67457;BME280;54319;52.038;4.640;2023-04-25T10:00:05;101744.22;;;9.94;63.90
67457;BME280;54319;52.038;4.640;2023-04-25T10:02:37;101756.06;;;10.16;61.70
67457;BME280;54319;52.038;4.640;2023-04-25T10:05:05;101751.38;;;10.25;63.00
67457;BME280;54319;52.038;4.640;2023-04-25T10:07:32;101752.59;;;10.22;61.45
67457;BME280;54319;52.038;4.640;2023-04-25T10:10:00;101757.97;;;10.31;59.06
67457;BME280;54319;52.038;4.640;2023-04-25T10:12:29;101762.31;;;10.40;60.07
67457;BME280;54319;52.038;4.640;2023-04-25T10:14:57;101760.34;;;10.64;59.59
67457;BME280;54319;52.038;4.640;2023-04-25T10:17:23;101772.56;;;10.68;57.83
67457;BME280;54319;52.038;4.640;2023-04-25T10:19:50;101766.84;;;10.63;58.39
67457;BME280;54319;52.038;4.640;2023-04-25T10:22:17;101766.47;;;11.03;58.88
67457;BME280;54319;52.038;4.640;2023-04-25T10:24:46;101765.25;;;11.27;57.94
67457;BME280;54319;52.038;4.640;2023-04-25T10:27:13;101773.31;;;11.35;55.82
67457;BME280;54319;52.038;4.640;2023-04-25T10:29:42;101759.97;;;11.04;55.97
67457;BME280;54319;52.038;4.640;2023-04-25T10:32:09;101769.91;;;10.60;55.34
67457;BME280;54319;52.038;4.640;2023-04-25T10:34:39;101771.94;;;10.51;56.61
67457;BME280;54319;52.038;4.640;2023-04-25T10:37:08;101766.91;;;10.24;57.34
67457;BME280;54319;52.038;4.640;2023-04-25T10:39:35;101767.44;;;10.05;58.96
67457;BME280;54319;52.038;4.640;2023-04-25T10:42:01;101766.50;;;9.97;57.73
67457;BME280;54319;52.038;4.640;2023-04-25T10:44:28;101769.75;;;10.46;54.27
67457;BME280;54319;52.038;4.640;2023-04-25T10:46:56;101768.47;;;10.79;53.63
67457;BME280;54319;52.038;4.640;2023-04-25T10:49:32;101770.28;;;11.23;51.82
67457;BME280;54319;52.038;4.640;2023-04-25T10:52:12;101770.72;;;11.27;53.01
67457;BME280;54319;52.038;4.640;2023-04-25T10:54:42;101772.28;;;11.14;53.58
67457;BME280;54319;52.038;4.640;2023-04-25T10:59:50;101772.63;;;11.26;52.27
67457;BME280;54319;52.038;4.640;2023-04-25T11:02:18;101778.53;;;11.52;53.84
67457;BME280;54319;52.038;4.640;2023-04-25T11:04:45;101771.25;;;11.37;54.78
67457;BME280;54319;52.038;4.640;2023-04-25T11:07:13;101777.41;;;11.68;50.86
67457;BME280;54319;52.038;4.640;2023-04-25T11:09:43;101776.53;;;11.89;50.57
67457;BME280;54319;52.038;4.640;2023-04-25T11:12:11;101784.69;;;12.04;49.64
67457;BME280;54319;52.038;4.640;2023-04-25T11:14:38;101785.31;;;11.56;51.68
67457;BME280;54319;52.038;4.640;2023-04-25T11:17:04;101774.44;;;11.63;50.93
67457;BME280;54319;52.038;4.640;2023-04-25T11:19:33;101782.16;;;11.81;51.33
67457;BME280;54319;52.038;4.640;2023-04-25T11:22:00;101779.78;;;11.27;50.08
67457;BME280;54319;52.038;4.640;2023-04-25T11:24:28;101783.75;;;11.10;50.94
67457;BME280;54319;52.038;4.640;2023-04-25T11:26:55;101788.59;;;10.93;50.82
67457;BME280;54319;52.038;4.640;2023-04-25T11:29:22;101781.06;;;10.95;50.97
67457;BME280;54319;52.038;4.640;2023-04-25T11:31:49;101786.19;;;11.20;50.36
67457;BME280;54319;52.038;4.640;2023-04-25T11:34:16;101794.53;;;11.33;50.23
67457;BME280;54319;52.038;4.640;2023-04-25T11:36:44;101799.09;;;11.48;49.76
67457;BME280;54319;52.038;4.640;2023-04-25T11:39:11;101790.28;;;11.74;48.96
67457;BME280;54319;52.038;4.640;2023-04-25T11:41:37;101800.91;;;11.62;48.70
67457;BME280;54319;52.038;4.640;2023-04-25T11:44:04;101792.63;;;11.77;52.30
67457;BME280;54319;52.038;4.640;2023-04-25T11:46:30;101809.22;;;11.32;51.54
67457;BME280;54319;52.038;4.640;2023-04-25T11:48:57;101808.66;;;11.00;52.09
67457;BME280;54319;52.038;4.640;2023-04-25T11:51:23;101806.97;;;11.36;52.86
67457;BME280;54319;52.038;4.640;2023-04-25T11:53:51;101809.53;;;11.87;51.90
67457;BME280;54319;52.038;4.640;2023-04-25T11:56:18;101812.84;;;12.26;50.17
67457;BME280;54319;52.038;4.640;2023-04-25T11:58:54;101812.88;;;12.33;47.59
67457;BME280;54319;52.038;4.640;2023-04-25T12:01:25;101820.88;;;12.06;47.32
67457;BME280;54319;52.038;4.640;2023-04-25T12:03:51;101821.28;;;11.81;46.25
67457;BME280;54319;52.038;4.640;2023-04-25T12:06:18;101820.34;;;11.31;48.30
67457;BME280;54319;52.038;4.640;2023-04-25T12:11:27;101817.41;;;11.10;49.81
67457;BME280;54319;52.038;4.640;2023-04-25T12:13:55;101822.19;;;11.08;50.35
67457;BME280;54319;52.038;4.640;2023-04-25T12:16:22;101814.31;;;10.98;52.38
67457;BME280;54319;52.038;4.640;2023-04-25T12:18:51;101823.78;;;11.18;50.57
67457;BME280;54319;52.038;4.640;2023-04-25T12:21:17;101828.97;;;11.12;49.94
67457;BME280;54319;52.038;4.640;2023-04-25T12:23:44;101833.53;;;10.90;47.84
67457;BME280;54319;52.038;4.640;2023-04-25T12:26:11;101770.56;;;10.17;47.69
67457;BME280;54319;52.038;4.640;2023-04-25T12:28:39;101835.22;;;10.46;48.41
67457;BME280;54319;52.038;4.640;2023-04-25T12:31:06;101834.81;;;11.09;48.62
67457;BME280;54319;52.038;4.640;2023-04-25T12:33:33;101840.16;;;11.18;48.83
67457;BME280;54319;52.038;4.640;2023-04-25T12:36:00;101838.25;;;11.55;49.49
67457;BME280;54319;52.038;4.640;2023-04-25T12:38:30;101838.13;;;11.85;49.31
67457;BME280;54319;52.038;4.640;2023-04-25T12:40:58;101839.31;;;11.54;49.89
67457;BME280;54319;52.038;4.640;2023-04-25T12:43:25;101843.97;;;11.60;51.62
67457;BME280;54319;52.038;4.640;2023-04-25T12:45:54;101851.38;;;12.03;51.28
67457;BME280;54319;52.038;4.640;2023-04-25T12:48:20;101846.84;;;11.73;51.44
67457;BME280;54319;52.038;4.640;2023-04-25T12:50:47;101850.50;;;11.37;52.35
67457;BME280;54319;52.038;4.640;2023-04-25T12:53:14;101855.75;;;11.02;52.60
67457;BME280;54319;52.038;4.640;2023-04-25T12:55:40;101856.78;;;10.71;52.32
67457;BME280;54319;52.038;4.640;2023-04-25T12:58:07;101854.72;;;10.58;52.43
67457;BME280;54319;52.038;4.640;2023-04-25T13:00:33;101862.88;;;10.43;53.80
67457;BME280;54319;52.038;4.640;2023-04-25T13:03:02;101853.84;;;10.57;51.52
67457;BME280;54319;52.038;4.640;2023-04-25T13:05:29;101852.63;;;10.90;51.61
67457;BME280;54319;52.038;4.640;2023-04-25T13:07:56;101850.66;;;10.99;50.67